sensor_id;sensor_type;location;lat;lon;timestamp;pressure;altitude;pressure_sealevel;temperature;humidity
68456;BME280;55437;55.046;38.838;2022-11-02T00:02:12;99758.28;;;5.25;58.49
68456;BME280;55437;55.046;38.838;2022-11-02T00:04:38;99769.31;;;5.23;58.62
68456;BME280;55437;55.046;38.838;2022-11-02T00:07:04;99771.00;;;5.24;58.60
68456;BME280;55437;55.046;38.838;2022-11-02T00:09:29;99768.47;;;5.24;59.02
68456;BME280;55437;55.046;38.838;2022-11-02T00:12:05;99773.53;;;5.25;59.06
68456;BME280;55437;55.046;38.838;2022-11-02T00:14:30;99761.69;;;5.23;58.90
68456;BME280;55437;55.046;38.838;2022-11-02T00:16:56;99765.94;;;5.24;59.06
68456;BME280;55437;55.046;38.838;2022-11-02T00:19:22;99761.66;;;5.26;58.73
68456;BME280;55437;55.046;38.838;2022-11-02T00:21:48;99760.06;;;5.19;59.17
68456;BME280;55437;55.046;38.838;2022-11-02T00:24:13;99758.38;;;5.18;58.90
68456;BME280;55437;55.046;38.838;2022-11-02T00:26:39;99760.00;;;5.22;58.93
68456;BME280;55437;55.046;38.838;2022-11-02T00:29:05;99750.75;;;5.16;58.96
68456;BME280;55437;55.046;38.838;2022-11-02T00:31:32;99754.13;;;5.18;59.26
68456;BME280;55437;55.046;38.838;2022-11-02T00:33:57;99741.34;;;5.20;58.91
68456;BME280;55437;55.046;38.838;2022-11-02T00:36:23;99751.53;;;5.20;59.06
68456;BME280;55437;55.046;38.838;2022-11-02T00:38:50;99753.22;;;5.22;58.95
68456;BME280;55437;55.046;38.838;2022-11-02T00:41:18;99743.09;;;5.19;59.04
68456;BME280;55437;55.046;38.838;2022-11-02T00:43:45;99748.28;;;5.08;58.95
68456;BME280;55437;55.046;38.838;2022-11-02T00:46:10;99750.03;;;5.05;59.32
68456;BME280;55437;55.046;38.838;2022-11-02T00:48:36;99747.50;;;5.05;59.10
68456;BME280;55437;55.046;38.838;2022-11-02T00:51:02;99748.34;;;5.05;59.39
68456;BME280;55437;55.046;38.838;2022-11-02T00:53:29;99742.47;;;4.97;59.44
68456;BME280;55437;55.046;38.838;2022-11-02T00:55:54;99740.00;;;4.90;59.44
68456;BME280;55437;55.046;38.838;2022-11-02T00:58:20;99740.81;;;4.95;59.62
68456;BME280;55437;55.046;38.838;2022-11-02T01:00:47;99747.50;;;5.03;59.44
68456;BME280;55437;55.046;38.838;2022-11-02T01:03:13;99751.69;;;5.07;59.39
68456;BME280;55437;55.046;38.838;2022-11-02T01:05:39;99744.88;;;5.10;59.22
68456;BME280;55437;55.046;38.838;2022-11-02T01:08:05;99744.13;;;5.00;59.58
68456;BME280;55437;55.046;38.838;2022-11-02T01:10:31;99739.06;;;4.97;59.46
68456;BME280;55437;55.046;38.838;2022-11-02T01:13:00;99730.59;;;4.98;59.48
68456;BME280;55437;55.046;38.838;2022-11-02T01:15:25;99736.53;;;4.98;59.70
68456;BME280;55437;55.046;38.838;2022-11-02T01:17:51;99743.31;;;4.98;59.73
68456;BME280;55437;55.046;38.838;2022-11-02T01:20:17;99735.66;;;4.99;59.49
68456;BME280;55437;55.046;38.838;2022-11-02T01:22:43;99732.22;;;5.03;59.37
68456;BME280;55437;55.046;38.838;2022-11-02T01:25:09;99727.97;;;5.07;59.22
68456;BME280;55437;55.046;38.838;2022-11-02T01:27:34;99734.75;;;5.06;59.40
68456;BME280;55437;55.046;38.838;2022-11-02T01:30:02;99733.94;;;5.03;59.48
68456;BME280;55437;55.046;38.838;2022-11-02T01:32:29;99734.78;;;5.03;59.62
68456;BME280;55437;55.046;38.838;2022-11-02T01:34:55;99728.88;;;4.98;59.44
68456;BME280;55437;55.046;38.838;2022-11-02T01:37:20;99735.78;;;4.87;59.50
68456;BME280;55437;55.046;38.838;2022-11-02T01:39:47;99731.78;;;4.66;59.64
68456;BME280;55437;55.046;38.838;2022-11-02T01:42:20;99730.28;;;4.46;59.96
68456;BME280;55437;55.046;38.838;2022-11-02T01:44:46;99732.91;;;4.35;59.86
68456;BME280;55437;55.046;38.838;2022-11-02T01:47:24;99734.66;;;4.27;60.12
68456;BME280;55437;55.046;38.838;2022-11-02T01:50:00;99738.06;;;4.27;60.25
68456;BME280;55437;55.046;38.838;2022-11-02T01:52:31;99737.19;;;4.30;60.42
68456;BME280;55437;55.046;38.838;2022-11-02T01:55:15;99734.63;;;4.33;60.11
68456;BME280;55437;55.046;38.838;2022-11-02T01:57:47;99734.66;;;4.27;60.26
68456;BME280;55437;55.046;38.838;2022-11-02T02:00:17;99732.94;;;4.32;60.16
68456;BME280;55437;55.046;38.838;2022-11-02T02:05:20;99726.06;;;4.42;60.01
68456;BME280;55437;55.046;38.838;2022-11-02T02:07:46;99728.66;;;4.37;59.95
68456;BME280;55437;55.046;38.838;2022-11-02T02:10:12;99727.06;;;4.25;60.35
68456;BME280;55437;55.046;38.838;2022-11-02T02:12:40;99732.97;;;4.27;60.42
68456;BME280;55437;55.046;38.838;2022-11-02T02:15:07;99731.25;;;4.29;60.46
68456;BME280;55437;55.046;38.838;2022-11-02T02:17:39;99732.13;;;4.27;60.43
68456;BME280;55437;55.046;38.838;2022-11-02T02:33:44;99725.53;;;4.05;60.58
68456;BME280;55437;55.046;38.838;2022-11-02T02:36:26;99726.47;;;3.91;60.96
68456;BME280;55437;55.046;38.838;2022-11-02T02:39:19;99729.00;;;3.96;61.00
68456;BME280;55437;55.046;38.838;2022-11-02T02:42:03;99717.97;;;3.97;60.79
68456;BME280;55437;55.046;38.838;2022-11-02T02:44:34;99723.81;;;4.10;60.72
68456;BME280;55437;55.046;38.838;2022-11-02T02:47:15;99727.13;;;4.19;60.25
68456;BME280;55437;55.046;38.838;2022-11-02T02:49:49;99719.47;;;4.22;60.30
68456;BME280;55437;55.046;38.838;2022-11-02T02:52:17;99715.19;;;4.27;60.12
68456;BME280;55437;55.046;38.838;2022-11-02T02:54:46;99713.47;;;4.29;60.14
68456;BME280;55437;55.046;38.838;2022-11-02T02:57:17;99714.31;;;4.30;60.25
68456;BME280;55437;55.046;38.838;2022-11-02T02:59:46;99719.50;;;4.21;60.59
68456;BME280;55437;55.046;38.838;2022-11-02T03:02:20;99719.53;;;4.12;60.70
68456;BME280;55437;55.046;38.838;2022-11-02T03:04:47;99722.06;;;4.15;60.84
68456;BME280;55437;55.046;38.838;2022-11-02T03:07:22;99721.97;;;4.27;60.36
68456;BME280;55437;55.046;38.838;2022-11-02T03:20:24;99717.47;;;4.58;59.86
68456;BME280;55437;55.046;38.838;2022-11-02T03:23:22;99711.53;;;4.57;59.87
68456;BME280;55437;55.046;38.838;2022-11-02T03:26:22;99714.97;;;4.49;60.05
68456;BME280;55437;55.046;38.838;2022-11-02T03:29:03;99713.47;;;4.32;60.33
68456;BME280;55437;55.046;38.838;2022-11-02T03:31:36;99715.19;;;4.27;60.32
68456;BME280;55437;55.046;38.838;2022-11-02T03:34:22;99717.78;;;4.20;60.51
68456;BME280;55437;55.046;38.838;2022-11-02T03:37:06;99718.66;;;4.16;60.69
68456;BME280;55437;55.046;38.838;2022-11-02T03:39:39;99716.03;;;4.25;60.17
68456;BME280;55437;55.046;38.838;2022-11-02T03:42:10;99727.97;;;4.20;60.23
68456;BME280;55437;55.046;38.838;2022-11-02T03:44:38;99727.97;;;4.17;60.36
68456;BME280;55437;55.046;38.838;2022-11-02T03:47:10;99723.72;;;4.20;60.27
68456;BME280;55437;55.046;38.838;2022-11-02T03:49:39;99721.13;;;4.25;60.42
68456;BME280;55437;55.046;38.838;2022-11-02T03:52:09;99721.09;;;4.29;60.01
68456;BME280;55437;55.046;38.838;2022-11-02T03:54:39;99722.81;;;4.27;60.19
68456;BME280;55437;55.046;38.838;2022-11-02T03:57:10;99721.13;;;4.26;60.13
68456;BME280;55437;55.046;38.838;2022-11-02T03:59:39;99721.94;;;4.28;60.17
68456;BME280;55437;55.046;38.838;2022-11-02T04:02:08;99727.84;;;4.32;59.84
68456;BME280;55437;55.046;38.838;2022-11-02T04:04:34;99716.78;;;4.39;59.80
68456;BME280;55437;55.046;38.838;2022-11-02T04:07:00;99719.25;;;4.47;59.67
68456;BME280;55437;55.046;38.838;2022-11-02T04:09:26;99720.91;;;4.48;59.62
68456;BME280;55437;55.046;38.838;2022-11-02T04:11:52;99724.25;;;4.57;59.38
68456;BME280;55437;55.046;38.838;2022-11-02T04:14:36;99717.41;;;4.59;59.54
68456;BME280;55437;55.046;38.838;2022-11-02T04:17:11;99723.41;;;4.54;59.43
68456;BME280;55437;55.046;38.838;2022-11-02T04:19:57;99724.34;;;4.45;59.80
68456;BME280;55437;55.046;38.838;2022-11-02T04:22:23;99718.47;;;4.39;59.72
68456;BME280;55437;55.046;38.838;2022-11-02T04:25:14;99714.31;;;4.28;59.89
68456;BME280;55437;55.046;38.838;2022-11-02T04:27:49;99718.66;;;4.17;59.95
68456;BME280;55437;55.046;38.838;2022-11-02T04:30:17;99714.59;;;3.96;60.41
68456;BME280;55437;55.046;38.838;2022-11-02T04:32:45;99721.47;;;3.79;60.61
68456;BME280;55437;55.046;38.838;2022-11-02T04:35:36;99715.59;;;3.73;60.94
68456;BME280;55437;55.046;38.838;2022-11-02T04:38:03;99722.41;;;3.65;60.95
68456;BME280;55437;55.046;38.838;2022-11-02T04:40:50;99729.22;;;3.59;61.32
68456;BME280;55437;55.046;38.838;2022-11-02T04:43:36;99725.00;;;3.54;61.34
68456;BME280;55437;55.046;38.838;2022-11-02T04:46:02;99726.75;;;3.43;61.39
68456;BME280;55437;55.046;38.838;2022-11-02T04:48:28;99724.22;;;3.44;61.45
68456;BME280;55437;55.046;38.838;2022-11-02T04:50:57;99727.66;;;3.30;61.81
68456;BME280;55437;55.046;38.838;2022-11-02T04:53:23;99730.25;;;3.22;61.75
68456;BME280;55437;55.046;38.838;2022-11-02T04:55:50;99726.03;;;3.19;62.05
68456;BME280;55437;55.046;38.838;2022-11-02T04:58:16;99732.78;;;3.17;62.46
68456;BME280;55437;55.046;38.838;2022-11-02T05:00:42;99730.28;;;3.13;62.36
68456;BME280;55437;55.046;38.838;2022-11-02T05:03:10;99731.09;;;3.15;62.22
68456;BME280;55437;55.046;38.838;2022-11-02T05:05:36;99729.44;;;3.03;62.65
68456;BME280;55437;55.046;38.838;2022-11-02T05:08:02;99731.19;;;3.01;62.63
68456;BME280;55437;55.046;38.838;2022-11-02T05:10:28;99727.75;;;3.07;62.64
68456;BME280;55437;55.046;38.838;2022-11-02T05:12:56;99720.09;;;3.19;62.56
68456;BME280;55437;55.046;38.838;2022-11-02T05:15:22;99718.34;;;3.36;61.87
68456;BME280;55437;55.046;38.838;2022-11-02T05:17:48;99715.75;;;3.48;61.65
68456;BME280;55437;55.046;38.838;2022-11-02T05:20:14;99722.41;;;3.65;61.33
68456;BME280;55437;55.046;38.838;2022-11-02T05:22:40;99711.31;;;3.79;60.97
68456;BME280;55437;55.046;38.838;2022-11-02T05:25:10;99713.75;;;3.93;61.10
68456;BME280;55437;55.046;38.838;2022-11-02T05:27:38;99717.13;;;3.96;61.17
68456;BME280;55437;55.046;38.838;2022-11-02T05:30:05;99712.81;;;4.09;60.67
68456;BME280;55437;55.046;38.838;2022-11-02T05:32:33;99712.75;;;4.11;60.83
68456;BME280;55437;55.046;38.838;2022-11-02T05:35:00;99715.28;;;4.15;60.84
68456;BME280;55437;55.046;38.838;2022-11-02T05:37:27;99713.47;;;4.29;60.68
68456;BME280;55437;55.046;38.838;2022-11-02T05:39:55;99717.63;;;4.38;60.36
68456;BME280;55437;55.046;38.838;2022-11-02T05:42:23;99704.88;;;4.46;60.17
68456;BME280;55437;55.046;38.838;2022-11-02T05:44:50;99712.44;;;4.50;60.43
68456;BME280;55437;55.046;38.838;2022-11-02T05:47:16;99702.28;;;4.49;59.98
68456;BME280;55437;55.046;38.838;2022-11-02T05:49:42;99705.66;;;4.49;60.00
68456;BME280;55437;55.046;38.838;2022-11-02T05:52:08;99703.09;;;4.52;60.00
68456;BME280;55437;55.046;38.838;2022-11-02T05:54:34;99702.22;;;4.55;59.80
68456;BME280;55437;55.046;38.838;2022-11-02T05:57:00;99697.88;;;4.66;59.37
68456;BME280;55437;55.046;38.838;2022-11-02T05:59:26;99694.53;;;4.61;59.57
68456;BME280;55437;55.046;38.838;2022-11-02T06:01:52;99696.31;;;4.53;59.24
68456;BME280;55437;55.046;38.838;2022-11-02T06:04:18;99697.25;;;4.46;59.50
68456;BME280;55437;55.046;38.838;2022-11-02T06:06:44;99697.38;;;4.29;59.68
68456;BME280;55437;55.046;38.838;2022-11-02T06:09:10;99701.72;;;4.16;59.97
68456;BME280;55437;55.046;38.838;2022-11-02T06:11:35;99695.72;;;4.25;59.87
68456;BME280;55437;55.046;38.838;2022-11-02T06:14:01;99704.25;;;4.21;59.89
68456;BME280;55437;55.046;38.838;2022-11-02T06:16:28;99701.81;;;4.07;60.05
68456;BME280;55437;55.046;38.838;2022-11-02T06:18:55;99700.13;;;4.06;60.07
68456;BME280;55437;55.046;38.838;2022-11-02T06:21:20;99693.34;;;4.08;60.12
68456;BME280;55437;55.046;38.838;2022-11-02T06:23:47;99702.56;;;4.15;60.09
68456;BME280;55437;55.046;38.838;2022-11-02T06:26:13;99703.31;;;4.28;60.06
68456;BME280;55437;55.046;38.838;2022-11-02T06:28:39;99700.78;;;4.26;59.91
68456;BME280;55437;55.046;38.838;2022-11-02T06:31:05;99700.88;;;4.19;60.10
68456;BME280;55437;55.046;38.838;2022-11-02T06:33:31;99699.38;;;3.89;60.10
68456;BME280;55437;55.046;38.838;2022-11-02T06:35:57;99709.69;;;3.74;60.46
68456;BME280;55437;55.046;38.838;2022-11-02T06:38:23;99701.25;;;3.64;60.54
68456;BME280;55437;55.046;38.838;2022-11-02T06:40:56;99702.91;;;3.70;60.23
68456;BME280;55437;55.046;38.838;2022-11-02T06:43:23;99699.53;;;3.71;60.08
68456;BME280;55437;55.046;38.838;2022-11-02T06:45:49;99709.63;;;3.75;59.77
68456;BME280;55437;55.046;38.838;2022-11-02T06:48:15;99710.53;;;3.67;59.95
68456;BME280;55437;55.046;38.838;2022-11-02T06:50:40;99708.00;;;3.70;60.16
68456;BME280;55437;55.046;38.838;2022-11-02T06:53:07;99710.59;;;3.59;60.03
68456;BME280;55437;55.046;38.838;2022-11-02T06:55:32;99712.25;;;3.63;60.08
68456;BME280;55437;55.046;38.838;2022-11-02T06:57:58;99714.06;;;3.41;60.43
68456;BME280;55437;55.046;38.838;2022-11-02T07:00:24;99710.72;;;3.36;60.48
68456;BME280;55437;55.046;38.838;2022-11-02T07:03:08;99723.41;;;3.35;60.78
68456;BME280;55437;55.046;38.838;2022-11-02T07:05:37;99717.50;;;3.34;60.63
68456;BME280;55437;55.046;38.838;2022-11-02T07:08:03;99715.81;;;3.30;60.68
68456;BME280;55437;55.046;38.838;2022-11-02T07:10:29;99716.56;;;3.50;60.53
68456;BME280;55437;55.046;38.838;2022-11-02T07:12:56;99709.75;;;3.58;60.29
68456;BME280;55437;55.046;38.838;2022-11-02T07:15:23;99713.88;;;3.75;60.06
68456;BME280;55437;55.046;38.838;2022-11-02T07:17:50;99713.06;;;3.71;60.18
68456;BME280;55437;55.046;38.838;2022-11-02T07:20:16;99715.63;;;3.63;60.29
68456;BME280;55437;55.046;38.838;2022-11-02T07:22:51;99722.38;;;3.71;60.17
68456;BME280;55437;55.046;38.838;2022-11-02T07:25:17;99722.41;;;3.66;60.12
68456;BME280;55437;55.046;38.838;2022-11-02T07:27:43;99720.75;;;3.60;60.05
68456;BME280;55437;55.046;38.838;2022-11-02T07:30:09;99721.56;;;3.62;59.90
68456;BME280;55437;55.046;38.838;2022-11-02T07:32:45;99726.59;;;3.73;59.69
68456;BME280;55437;55.046;38.838;2022-11-02T07:35:12;99730.78;;;3.79;59.22
68456;BME280;55437;55.046;38.838;2022-11-02T07:37:39;99719.72;;;3.87;58.86
68456;BME280;55437;55.046;38.838;2022-11-02T07:40:06;99720.47;;;3.98;58.82
68456;BME280;55437;55.046;38.838;2022-11-02T07:42:32;99714.50;;;4.10;58.50
68456;BME280;55437;55.046;38.838;2022-11-02T07:44:58;99714.34;;;4.25;58.17
68456;BME280;55437;55.046;38.838;2022-11-02T07:47:25;99719.47;;;4.22;58.27
68456;BME280;55437;55.046;38.838;2022-11-02T07:49:51;99717.84;;;4.12;58.10
68456;BME280;55437;55.046;38.838;2022-11-02T07:52:17;99717.06;;;4.04;58.02
68456;BME280;55437;55.046;38.838;2022-11-02T07:54:42;99713.75;;;3.97;58.02
68456;BME280;55437;55.046;38.838;2022-11-02T07:57:08;99719.63;;;4.03;57.75
68456;BME280;55437;55.046;38.838;2022-11-02T07:59:34;99714.44;;;4.12;57.65
68456;BME280;55437;55.046;38.838;2022-11-02T08:02:01;99714.41;;;4.21;57.50
68456;BME280;55437;55.046;38.838;2022-11-02T08:04:27;99708.41;;;4.25;57.25
68456;BME280;55437;55.046;38.838;2022-11-02T08:06:53;99715.19;;;4.27;57.30
68456;BME280;55437;55.046;38.838;2022-11-02T08:09:22;99721.09;;;4.32;56.88
68456;BME280;55437;55.046;38.838;2022-11-02T08:11:47;99719.28;;;4.45;56.73
68456;BME280;55437;55.046;38.838;2022-11-02T08:14:13;99718.47;;;4.39;56.69
68456;BME280;55437;55.046;38.838;2022-11-02T08:16:39;99722.78;;;4.33;56.88
68456;BME280;55437;55.046;38.838;2022-11-02T08:19:04;99718.59;;;4.25;56.93
68456;BME280;55437;55.046;38.838;2022-11-02T08:21:30;99719.53;;;4.12;56.73
68456;BME280;55437;55.046;38.838;2022-11-02T08:23:56;99715.34;;;4.09;57.17
68456;BME280;55437;55.046;38.838;2022-11-02T08:26:22;99711.88;;;4.18;56.99
68456;BME280;55437;55.046;38.838;2022-11-02T08:28:48;99720.28;;;4.26;56.91
68456;BME280;55437;55.046;38.838;2022-11-02T08:31:15;99710.81;;;4.42;56.54
68456;BME280;55437;55.046;38.838;2022-11-02T08:33:45;99714.09;;;4.53;56.21
68456;BME280;55437;55.046;38.838;2022-11-02T08:36:10;99714.00;;;4.63;55.97
68456;BME280;55437;55.046;38.838;2022-11-02T08:38:36;99707.84;;;4.84;55.70
68456;BME280;55437;55.046;38.838;2022-11-02T08:41:04;99699.16;;;5.03;55.43
68456;BME280;55437;55.046;38.838;2022-11-02T08:43:30;99706.69;;;5.13;55.22
68456;BME280;55437;55.046;38.838;2022-11-02T08:45:57;99707.50;;;5.15;54.77
68456;BME280;55437;55.046;38.838;2022-11-02T08:48:24;99718.56;;;5.12;54.66
68456;BME280;55437;55.046;38.838;2022-11-02T08:50:52;99715.28;;;5.01;54.53
68456;BME280;55437;55.046;38.838;2022-11-02T08:53:18;99709.31;;;5.06;54.53
68456;BME280;55437;55.046;38.838;2022-11-02T08:55:43;99702.81;;;4.81;54.60
68456;BME280;55437;55.046;38.838;2022-11-02T08:58:10;99706.34;;;4.65;54.78
68456;BME280;55437;55.046;38.838;2022-11-02T09:00:35;99703.06;;;4.55;54.86
68456;BME280;55437;55.046;38.838;2022-11-02T09:03:03;99709.91;;;4.49;54.98
68456;BME280;55437;55.046;38.838;2022-11-02T09:05:35;99712.50;;;4.43;55.18
68456;BME280;55437;55.046;38.838;2022-11-02T09:08:03;99713.28;;;4.48;54.93
68456;BME280;55437;55.046;38.838;2022-11-02T09:10:31;99712.22;;;4.71;54.80
68456;BME280;55437;55.046;38.838;2022-11-02T09:13:02;99718.81;;;4.89;54.37
68456;BME280;55437;55.046;38.838;2022-11-02T09:15:29;99715.25;;;5.04;54.20
68456;BME280;55437;55.046;38.838;2022-11-02T09:17:54;99716.84;;;5.14;53.97
68456;BME280;55437;55.046;38.838;2022-11-02T09:20:21;99711.72;;;5.17;53.60
68456;BME280;55437;55.046;38.838;2022-11-02T09:22:47;99716.03;;;5.11;53.68
68456;BME280;55437;55.046;38.838;2022-11-02T09:25:14;99726.09;;;5.20;53.37
68456;BME280;55437;55.046;38.838;2022-11-02T09:27:41;99720.28;;;5.10;53.18
68456;BME280;55437;55.046;38.838;2022-11-02T09:30:07;99714.69;;;4.81;53.90
68456;BME280;55437;55.046;38.838;2022-11-02T09:32:33;99702.00;;;4.78;53.55
68456;BME280;55437;55.046;38.838;2022-11-02T09:35:01;99707.66;;;5.01;53.64
68456;BME280;55437;55.046;38.838;2022-11-02T09:37:28;99704.94;;;5.18;53.14
68456;BME280;55437;55.046;38.838;2022-11-02T09:39:55;99709.31;;;5.06;53.39
68456;BME280;55437;55.046;38.838;2022-11-02T09:45:05;99704.53;;;4.76;53.84
68456;BME280;55437;55.046;38.838;2022-11-02T09:47:44;99710.34;;;4.89;53.72
68456;BME280;55437;55.046;38.838;2022-11-02T09:50:15;99704.38;;;4.93;53.67
68456;BME280;55437;55.046;38.838;2022-11-02T09:52:45;99704.34;;;4.94;53.54
68456;BME280;55437;55.046;38.838;2022-11-02T09:55:20;99707.94;;;4.77;53.61
68456;BME280;55437;55.046;38.838;2022-11-02T09:57:50;99698.75;;;4.63;53.52
68456;BME280;55437;55.046;38.838;2022-11-02T10:00:19;99701.50;;;4.44;54.05
68456;BME280;55437;55.046;38.838;2022-11-02T10:03:00;99697.19;;;4.47;54.02
68456;BME280;55437;55.046;38.838;2022-11-02T10:05:55;99699.81;;;4.40;54.00
68456;BME280;55437;55.046;38.838;2022-11-02T10:08:48;99702.47;;;4.27;54.47
68456;BME280;55437;55.046;38.838;2022-11-02T10:11:56;99700.69;;;4.35;54.07
68456;BME280;55437;55.046;38.838;2022-11-02T10:17:08;99697.13;;;4.56;53.69
68456;BME280;55437;55.046;38.838;2022-11-02T10:19:39;99691.13;;;4.60;53.28
68456;BME280;55437;55.046;38.838;2022-11-02T10:22:09;99698.56;;;4.82;53.30
68456;BME280;55437;55.046;38.838;2022-11-02T10:24:44;99704.31;;;4.97;53.14
68456;BME280;55437;55.046;38.838;2022-11-02T10:27:20;99705.28;;;4.86;53.23
68456;BME280;55437;55.046;38.838;2022-11-02T10:30:12;99701.28;;;4.65;53.46
68456;BME280;55437;55.046;38.838;2022-11-02T10:32:39;99707.44;;;4.43;53.86
68456;BME280;55437;55.046;38.838;2022-11-02T10:35:18;99704.94;;;4.35;54.16
68456;BME280;55437;55.046;38.838;2022-11-02T10:38:20;99699.06;;;4.28;54.49
68456;BME280;55437;55.046;38.838;2022-11-02T10:51:37;99685.25;;;4.58;53.94
68456;BME280;55437;55.046;38.838;2022-11-02T10:54:11;99684.41;;;4.58;53.91
68456;BME280;55437;55.046;38.838;2022-11-02T10:56:42;99688.66;;;4.57;53.93
68456;BME280;55437;55.046;38.838;2022-11-02T10:59:19;99687.69;;;4.66;53.87
68456;BME280;55437;55.046;38.838;2022-11-02T11:04:29;99684.03;;;4.93;53.74
68456;BME280;55437;55.046;38.838;2022-11-02T11:06:58;99687.25;;;5.05;53.55
68456;BME280;55437;55.046;38.838;2022-11-02T11:09:32;99683.66;;;5.22;53.04
68456;BME280;55437;55.046;38.838;2022-11-02T11:12:05;99682.78;;;5.24;52.90
68456;BME280;55437;55.046;38.838;2022-11-02T11:14:38;99680.16;;;5.30;52.81
68456;BME280;55437;55.046;38.838;2022-11-02T11:17:17;99683.56;;;5.31;52.88
68456;BME280;55437;55.046;38.838;2022-11-02T11:19:49;99691.41;;;5.13;52.70
68456;BME280;55437;55.046;38.838;2022-11-02T11:22:25;99686.47;;;5.00;53.08
68456;BME280;55437;55.046;38.838;2022-11-02T11:24:51;99684.03;;;4.90;53.11
68456;BME280;55437;55.046;38.838;2022-11-02T11:27:19;99683.81;;;5.08;53.31
68456;BME280;55437;55.046;38.838;2022-11-02T11:29:48;99683.66;;;5.22;53.04
68456;BME280;55437;55.046;38.838;2022-11-02T11:32:17;99685.69;;;5.60;54.93
68456;BME280;55437;55.046;38.838;2022-11-02T11:34:52;99680.78;;;5.46;53.51
68456;BME280;55437;55.046;38.838;2022-11-02T11:37:20;99676.81;;;5.27;53.42
68456;BME280;55437;55.046;38.838;2022-11-02T11:39:50;99688.16;;;5.01;53.70
68456;BME280;55437;55.046;38.838;2022-11-02T11:42:19;99685.25;;;4.58;54.31
68456;BME280;55437;55.046;38.838;2022-11-02T11:45:02;99694.88;;;4.23;55.06
68456;BME280;55437;55.046;38.838;2022-11-02T11:47:37;99688.19;;;4.16;55.21
68456;BME280;55437;55.046;38.838;2022-11-02T11:50:09;99678.88;;;4.13;55.41
68456;BME280;55437;55.046;38.838;2022-11-02T11:52:37;99691.56;;;4.15;55.28
68456;BME280;55437;55.046;38.838;2022-11-02T11:57:45;99683.50;;;4.62;56.30
68456;BME280;55437;55.046;38.838;2022-11-02T12:00:27;99692.84;;;4.60;55.71
68456;BME280;55437;55.046;38.838;2022-11-02T12:03:10;99691.31;;;4.45;55.89
68456;BME280;55437;55.046;38.838;2022-11-02T12:11:31;99697.75;;;5.46;56.96
68456;BME280;55437;55.046;38.838;2022-11-02T12:14:15;99691.06;;;5.38;55.62
68456;BME280;55437;55.046;38.838;2022-11-02T12:17:13;99685.44;;;5.17;55.39
68456;BME280;55437;55.046;38.838;2022-11-02T12:22:25;99700.41;;;4.69;55.21
68456;BME280;55437;55.046;38.838;2022-11-02T12:28:27;99698.31;;;4.20;55.89
68456;BME280;55437;55.046;38.838;2022-11-02T12:30:22;99712.19;;;3.75;56.69
68456;BME280;55437;55.046;38.838;2022-11-02T12:33:07;99700.59;;;3.36;56.92
68456;BME280;55437;55.046;38.838;2022-11-02T12:41:09;99707.47;;;3.10;57.54
68456;BME280;55437;55.046;38.838;2022-11-02T12:43:45;99706.63;;;3.09;57.69
68456;BME280;55437;55.046;38.838;2022-11-02T12:54:46;99722.69;;;3.13;57.14
68456;BME280;55437;55.046;38.838;2022-11-02T12:57:15;99731.09;;;3.21;56.93
68456;BME280;55437;55.046;38.838;2022-11-02T12:59:43;99731.03;;;3.33;56.65
68456;BME280;55437;55.046;38.838;2022-11-02T13:02:15;99735.28;;;3.33;57.06
68456;BME280;55437;55.046;38.838;2022-11-02T13:04:51;99731.03;;;3.35;57.05
68456;BME280;55437;55.046;38.838;2022-11-02T13:07:30;99738.66;;;3.29;57.12
68456;BME280;55437;55.046;38.838;2022-11-02T13:10:15;99743.72;;;3.33;57.17
68456;BME280;55437;55.046;38.838;2022-11-02T13:12:53;99741.13;;;3.41;56.78
68456;BME280;55437;55.046;38.838;2022-11-02T13:15:22;99753.06;;;3.25;57.41
68456;BME280;55437;55.046;38.838;2022-11-02T13:17:56;99743.78;;;3.18;57.36
68456;BME280;55437;55.046;38.838;2022-11-02T13:20:26;99742.97;;;3.13;57.48
68456;BME280;55437;55.046;38.838;2022-11-02T13:23:16;99745.50;;;3.07;57.63
68456;BME280;55437;55.046;38.838;2022-11-02T13:25:48;99743.84;;;2.90;57.81
68456;BME280;55437;55.046;38.838;2022-11-02T13:28:45;99742.19;;;2.85;58.55
68456;BME280;55437;55.046;38.838;2022-11-02T13:31:36;99749.81;;;2.86;58.28
68456;BME280;55437;55.046;38.838;2022-11-02T13:34:13;99743.03;;;2.79;58.33
68456;BME280;55437;55.046;38.838;2022-11-02T13:36:41;99747.25;;;2.79;58.29
68456;BME280;55437;55.046;38.838;2022-11-02T13:39:25;99738.84;;;2.75;58.33
68456;BME280;55437;55.046;38.838;2022-11-02T13:42:18;99738.81;;;2.81;58.21
68456;BME280;55437;55.046;38.838;2022-11-02T13:50:50;99731.22;;;2.78;58.34
68456;BME280;55437;55.046;38.838;2022-11-02T13:53:29;99729.53;;;2.70;58.29
68456;BME280;55437;55.046;38.838;2022-11-02T13:56:10;99731.25;;;2.65;58.54
68456;BME280;55437;55.046;38.838;2022-11-02T13:58:48;99727.88;;;2.61;59.11
68456;BME280;55437;55.046;38.838;2022-11-02T14:01:21;99731.22;;;2.66;59.02
68456;BME280;55437;55.046;38.838;2022-11-02T14:03:51;99730.41;;;2.64;59.07
68456;BME280;55437;55.046;38.838;2022-11-02T14:06:20;99738.88;;;2.63;59.13
68456;BME280;55437;55.046;38.838;2022-11-02T14:09:06;99737.16;;;2.73;58.95
68456;BME280;55437;55.046;38.838;2022-11-02T14:22:11;99746.34;;;3.09;58.16
68456;BME280;55437;55.046;38.838;2022-11-02T14:27:25;99736.25;;;2.98;58.42
68456;BME280;55437;55.046;38.838;2022-11-02T14:29:53;99743.81;;;3.04;58.32
68456;BME280;55437;55.046;38.838;2022-11-02T19:45:34;99810.66;;;2.23;61.01
68456;BME280;55437;55.046;38.838;2022-11-02T19:48:01;99814.91;;;2.39;61.56
68456;BME280;55437;55.046;38.838;2022-11-02T19:50:27;99816.56;;;2.43;61.93
68456;BME280;55437;55.046;38.838;2022-11-02T19:52:53;99814.91;;;2.49;62.16
68456;BME280;55437;55.046;38.838;2022-11-02T19:55:18;99813.22;;;2.47;62.06
68456;BME280;55437;55.046;38.838;2022-11-02T19:57:47;99818.28;;;2.47;62.18
68456;BME280;55437;55.046;38.838;2022-11-02T20:00:13;99808.13;;;2.36;62.22
68456;BME280;55437;55.046;38.838;2022-11-02T20:02:39;99814.88;;;2.25;62.63
68456;BME280;55437;55.046;38.838;2022-11-02T20:05:06;99812.34;;;2.27;62.63